Time;durP1;ratioP1;P1;durP2;ratioP2;P2;SDS_P1;SDS_P2;PMS_P1;PMS_P2;Temp;Humidity;BMP_temperature;BMP_pressure;BME280_temperature;BME280_humidity;BME280_pressure;Samples;Min_cycle;Max_cycle;Signal;HPM_P1;HPM_P2
2023/12/07 00:01:41;;;;;;;19.73;15.27;;;1.70;99.90;;;;;;5091663;28;20040;-84
2023/12/07 00:04:07;;;;;;;20.70;15.07;;;1.60;99.90;;;;;;5073628;28;20048;-85
2023/12/07 00:06:33;;;;;;;20.93;15.00;;;1.90;99.90;;;;;;5074571;28;20066;-84
2023/12/07 00:09:00;;;;;;;22.57;15.40;;;1.60;99.90;;;;;;5091428;28;20368;-84
2023/12/07 00:11:26;;;;;;;21.73;16.05;;;1.60;99.90;;;;;;5091118;28;20094;-84
2023/12/07 00:13:52;;;;;;;20.47;14.97;;;2.00;99.90;;;;;;5091473;28;20079;-84
2023/12/07 00:16:18;;;;;;;28.43;21.20;;;3.00;99.90;;;;;;5049021;28;20143;-84
2023/12/07 00:18:43;;;;;;;23.47;16.80;;;1.80;99.90;;;;;;5095342;28;20036;-84
2023/12/07 00:21:10;;;;;;;20.57;13.77;;;1.70;99.90;;;;;;5077530;28;20071;-85
2023/12/07 00:23:37;;;;;;;23.77;17.17;;;1.60;99.90;;;;;;5077531;28;20505;-84
2023/12/07 00:26:04;;;;;;;26.83;18.13;;;2.10;99.90;;;;;;5094493;28;20059;-85
2023/12/07 00:28:29;;;;;;;22.13;16.40;;;2.60;99.90;;;;;;5094098;28;20047;-85
2023/12/07 00:30:55;;;;;;;20.43;13.80;;;1.60;99.90;;;;;;5077512;28;20185;-85
2023/12/07 00:33:21;;;;;;;20.53;14.57;;;1.60;99.90;;;;;;5059978;28;20498;-85
2023/12/07 00:35:47;;;;;;;22.43;16.03;;;1.60;99.90;;;;;;5077544;28;20101;-85
2023/12/07 00:38:13;;;;;;;22.10;15.30;;;2.10;99.90;;;;;;5093961;28;20040;-85
2023/12/07 00:40:39;;;;;;;18.07;12.80;;;1.60;99.90;;;;;;5077343;28;20492;-85
2023/12/07 00:43:08;;;;;;;21.85;14.57;;;1.70;99.90;;;;;;5094170;28;20047;-85
2023/12/07 00:45:34;;;;;;;16.05;12.02;;;1.60;99.90;;;;;;5076161;28;20052;-85
2023/12/07 00:48:00;;;;;;;19.80;13.07;;;1.60;99.90;;;;;;5043818;28;20501;-84
2023/12/07 00:50:26;;;;;;;18.57;13.43;;;1.60;99.90;;;;;;5076623;28;20397;-85
2023/12/07 00:52:51;;;;;;;18.63;12.83;;;1.60;99.90;;;;;;5093814;28;20474;-85
2023/12/07 00:55:17;;;;;;;19.17;12.40;;;1.60;99.90;;;;;;5076540;28;20048;-85
2023/12/07 00:57:43;;;;;;;19.07;11.87;;;1.60;99.90;;;;;;5093901;28;20083;-85
2023/12/07 01:00:10;;;;;;;19.67;13.57;;;1.60;99.90;;;;;;5093545;28;20162;-85
2023/12/07 01:02:36;;;;;;;20.67;14.52;;;1.60;99.90;;;;;;5092961;28;20040;-85
2023/12/07 01:05:01;;;;;;;16.03;11.43;;;1.70;99.90;;;;;;5076453;28;20056;-85
2023/12/07 01:07:27;;;;;;;17.93;13.20;;;1.60;99.90;;;;;;5076169;28;20131;-85
2023/12/07 01:09:53;;;;;;;18.30;12.87;;;2.20;99.90;;;;;;5094569;28;20093;-85
2023/12/07 01:12:18;;;;;;;19.47;12.30;;;2.70;99.90;;;;;;5076041;28;20043;-85
2023/12/07 01:14:44;;;;;;;17.63;13.00;;;1.60;99.90;;;;;;5077107;28;20040;-85
2023/12/07 01:17:10;;;;;;;16.93;12.87;;;3.00;99.90;;;;;;5076094;28;20490;-85
2023/12/07 01:19:35;;;;;;;18.03;11.60;;;1.60;99.90;;;;;;5076221;28;20267;-85
2023/12/07 01:22:01;;;;;;;18.67;12.40;;;1.60;99.90;;;;;;5093190;28;20044;-85
2023/12/07 01:24:27;;;;;;;19.17;12.07;;;1.60;99.90;;;;;;5075880;28;20123;-85
2023/12/07 01:26:52;;;;;;;18.77;12.47;;;1.60;99.90;;;;;;5075230;28;20059;-85
2023/12/07 01:29:18;;;;;;;20.40;12.07;;;1.60;99.90;;;;;;5092380;28;20063;-85
2023/12/07 01:31:44;;;;;;;18.23;13.03;;;2.80;99.90;;;;;;5076731;28;20048;-85
2023/12/07 01:34:10;;;;;;;20.00;12.17;;;1.60;99.90;;;;;;5076450;28;20131;-85
2023/12/07 01:36:36;;;;;;;19.20;12.02;;;2.30;99.90;;;;;;5092493;28;20477;-85
2023/12/07 01:39:02;;;;;;;16.67;12.40;;;1.60;99.90;;;;;;5075959;28;20051;-85
2023/12/07 01:41:28;;;;;;;19.35;13.48;;;1.60;99.90;;;;;;5058930;28;20051;-85
2023/12/07 01:43:54;;;;;;;19.30;12.47;;;1.60;99.90;;;;;;5075823;28;20048;-85
2023/12/07 01:46:20;;;;;;;19.10;13.43;;;2.20;99.90;;;;;;5092708;28;20051;-85
2023/12/07 01:48:49;;;;;;;22.25;14.60;;;2.80;99.90;;;;;;5059135;28;20044;-85
2023/12/07 01:51:16;;;;;;;23.55;14.35;;;3.00;99.90;;;;;;5092910;28;20044;-85
2023/12/07 01:53:42;;;;;;;22.63;14.13;;;2.20;99.90;;;;;;5092275;28;20044;-85
2023/12/07 01:56:09;;;;;;;25.80;15.25;;;1.70;99.90;;;;;;5092437;28;20127;-85
2023/12/07 01:58:35;;;;;;;29.75;16.88;;;1.70;99.90;;;;;;5092249;28;20044;-85
2023/12/07 02:01:02;;;;;;;23.15;15.35;;;1.70;99.90;;;;;;5092310;28;20109;-85
2023/12/07 02:03:29;;;;;;;24.58;16.98;;;1.70;99.90;;;;;;5058333;28;20445;-85
2023/12/07 02:05:57;;;;;;;22.92;16.67;;;1.70;99.90;;;;;;5093757;28;20087;-85
2023/12/07 02:08:23;;;;;;;21.08;15.48;;;3.00;99.90;;;;;;5093212;28;20058;-85
2023/12/07 02:10:48;;;;;;;21.27;13.57;;;2.30;99.90;;;;;;5058286;28;20043;-85
2023/12/07 02:13:14;;;;;;;22.53;13.93;;;2.20;99.90;;;;;;5075526;28;20044;-85
2023/12/07 02:15:40;;;;;;;19.60;13.63;;;2.80;99.90;;;;;;5074923;28;20048;-85
2023/12/07 02:18:18;;;;;;;21.47;14.03;;;2.30;99.90;;;;;;5092523;28;20119;-85
2023/12/07 02:21:06;;;;;;;19.80;11.95;;;1.70;99.90;;;;;;5075043;28;20100;-85
2023/12/07 02:23:33;;;;;;;20.03;14.00;;;1.70;99.90;;;;;;5074304;28;20043;-85
2023/12/07 02:26:03;;;;;;;20.83;13.85;;;1.70;99.90;;;;;;5092278;28;20286;-85
2023/12/07 02:28:29;;;;;;;18.67;13.20;;;2.20;99.90;;;;;;5091670;28;20036;-85
2023/12/07 02:30:54;;;;;;;24.33;14.97;;;2.90;99.90;;;;;;5075338;28;20069;-85
2023/12/07 02:33:20;;;;;;;22.10;13.97;;;1.60;99.90;;;;;;5075204;28;20065;-85
2023/12/07 02:35:46;;;;;;;20.92;14.52;;;2.00;99.90;;;;;;5091517;28;20048;-85
2023/12/07 02:38:12;;;;;;;19.93;13.47;;;1.50;99.90;;;;;;5057932;28;20047;-85
2023/12/07 02:40:40;;;;;;;22.07;14.50;;;1.50;99.90;;;;;;5074510;28;20137;-85
2023/12/07 02:43:06;;;;;;;22.30;14.73;;;1.90;99.90;;;;;;5075276;28;20571;-85
2023/12/07 02:45:32;;;;;;;25.70;15.27;;;2.40;99.90;;;;;;5057752;28;20086;-85
2023/12/07 02:47:58;;;;;;;24.55;15.35;;;2.70;99.90;;;;;;5074950;28;20051;-85
2023/12/07 02:50:24;;;;;;;36.90;16.33;;;1.90;99.90;;;;;;5091691;28;20453;-85
2023/12/07 02:52:50;;;;;;;21.93;13.93;;;1.40;99.90;;;;;;5074479;28;20212;-84
2023/12/07 02:55:18;;;;;;;24.20;15.60;;;2.40;99.90;;;;;;5074780;28;20122;-85
2023/12/07 02:57:46;;;;;;;24.65;15.20;;;2.60;99.90;;;;;;5091076;28;20063;-85
2023/12/07 03:00:14;;;;;;;25.58;15.70;;;1.40;99.90;;;;;;5074962;28;20147;-85
2023/12/07 03:02:40;;;;;;;25.52;15.77;;;1.40;99.90;;;;;;5074544;28;20052;-85
2023/12/07 03:05:06;;;;;;;23.92;15.30;;;2.60;99.90;;;;;;5057777;28;20055;-84
2023/12/07 03:07:33;;;;;;;25.25;16.70;;;1.30;99.90;;;;;;5074327;28;20062;-85
2023/12/07 03:09:59;;;;;;;;;;;1.30;99.90;;;;;;5075306;28;20059;-85
2023/12/07 03:12:24;;;;;;;24.80;14.50;;;1.30;99.90;;;;;;5074599;28;19924;-85
2023/12/07 03:14:50;;;;;;;21.43;14.90;;;1.40;99.90;;;;;;5091137;28;20071;-85
2023/12/07 03:17:16;;;;;;;23.53;17.13;;;1.30;99.90;;;;;;5091383;28;20040;-85
2023/12/07 03:19:42;;;;;;;24.90;15.27;;;1.80;99.90;;;;;;5057368;28;20047;-85
2023/12/07 03:22:08;;;;;;;24.80;16.42;;;2.00;99.90;;;;;;5074737;28;20059;-85
2023/12/07 03:24:37;;;;;;;27.70;15.30;;;1.30;99.90;;;;;;5091983;28;20520;-86
2023/12/07 03:27:04;;;;;;;27.10;15.88;;;1.30;99.90;;;;;;5057908;28;20400;-85
2023/12/07 03:29:31;;;;;;;26.35;15.43;;;1.30;99.90;;;;;;5074045;28;20067;-85
2023/12/07 03:31:57;;;;;;;;;;;1.30;99.90;;;;;;5074478;28;20092;-85
2023/12/07 03:34:23;;;;;;;27.50;17.08;;;2.40;99.90;;;;;;5074329;28;19924;-85
2023/12/07 03:36:49;;;;;;;25.63;16.73;;;1.30;99.90;;;;;;5090656;28;20040;-85
2023/12/07 03:39:18;;;;;;;30.83;16.70;;;2.50;99.90;;;;;;5058042;28;20044;-85
2023/12/07 03:41:44;;;;;;;27.17;16.80;;;1.90;99.90;;;;;;5090725;28;20086;-85
2023/12/07 03:44:09;;;;;;;31.33;18.30;;;1.20;99.90;;;;;;5070994;28;20045;-85
2023/12/07 03:46:35;;;;;;;26.83;17.40;;;1.20;99.90;;;;;;5054350;28;20133;-85
2023/12/07 03:49:01;;;;;;;24.57;16.13;;;1.50;99.90;;;;;;5104814;28;20044;-85
2023/12/07 03:51:28;;;;;;;30.33;17.43;;;-0.10;99.90;;;;;;5089712;28;20541;-85
2023/12/07 03:53:54;;;;;;;25.48;16.90;;;1.20;99.90;;;;;;5074305;28;20092;-85
2023/12/07 03:56:28;;;;;;;27.02;18.10;;;1.10;99.90;;;;;;5058215;28;20067;-85
2023/12/07 03:58:54;;;;;;;25.65;16.17;;;1.00;99.90;;;;;;5072921;28;20466;-85
2023/12/07 04:01:24;;;;;;;29.77;17.83;;;1.30;99.90;;;;;;5094948;28;20079;-85
2023/12/07 04:03:51;;;;;;;26.38;15.95;;;0.90;99.90;;;;;;5094025;28;20060;-85
2023/12/07 04:06:17;;;;;;;29.88;17.40;;;0.80;99.90;;;;;;5078214;28;20109;-85
2023/12/07 04:08:43;;;;;;;26.60;17.20;;;0.80;99.90;;;;;;5094255;28;20052;-85
2023/12/07 04:11:08;;;;;;;27.77;17.23;;;1.30;99.90;;;;;;5094745;28;20483;-85
2023/12/07 04:13:34;;;;;;;29.37;17.70;;;0.70;99.90;;;;;;5111152;28;20040;-85
2023/12/07 04:16:00;;;;;;;24.77;16.90;;;0.70;99.90;;;;;;5094189;28;20040;-85
2023/12/07 04:18:26;;;;;;;32.93;20.00;;;1.30;99.90;;;;;;5128498;27;20486;-85
2023/12/07 04:20:51;;;;;;;35.90;18.10;;;0.60;99.90;;;;;;5077438;28;20079;-85
2023/12/07 04:23:17;;;;;;;30.20;18.00;;;1.90;99.90;;;;;;5111626;28;20048;-85
2023/12/07 04:25:43;;;;;;;24.17;16.50;;;0.50;99.90;;;;;;5127055;27;20044;-86
2023/12/07 04:28:08;;;;;;;30.20;19.00;;;0.50;99.90;;;;;;5094470;28;20390;-85
2023/12/07 04:30:34;;;;;;;24.83;16.90;;;0.50;99.90;;;;;;5111595;27;20047;-84
2023/12/07 04:33:00;;;;;;;34.30;20.67;;;0.80;99.90;;;;;;5060462;28;20047;-85
2023/12/07 04:35:26;;;;;;;28.93;18.70;;;1.60;99.90;;;;;;5077584;28;20146;-85
2023/12/07 04:37:52;;;;;;;34.08;20.25;;;0.40;99.90;;;;;;5077218;28;20052;-85
2023/12/07 04:40:18;;;;;;;32.33;20.10;;;1.00;99.90;;;;;;5077267;28;20945;-85
2023/12/07 04:42:43;;;;;;;32.73;19.30;;;0.30;99.90;;;;;;5093830;28;20149;-85
2023/12/07 04:45:09;;;;;;;34.80;20.03;;;0.30;99.90;;;;;;5077010;28;20048;-85
2023/12/07 04:47:35;;;;;;;31.87;21.60;;;1.40;99.90;;;;;;5076986;28;20048;-85
2023/12/07 04:50:01;;;;;;;33.63;19.87;;;0.80;99.90;;;;;;5093556;28;20044;-85
2023/12/07 04:52:26;;;;;;;32.83;20.57;;;1.50;99.90;;;;;;5093979;28;20046;-85
2023/12/07 04:54:52;;;;;;;40.53;23.40;;;0.30;99.90;;;;;;5056088;28;20041;-85
2023/12/07 04:57:17;;;;;;;31.57;20.20;;;0.30;99.90;;;;;;5090504;28;20082;-85
2023/12/07 04:59:46;;;;;;;39.40;22.13;;;1.40;99.90;;;;;;5107521;28;20040;-85
2023/12/07 05:02:16;;;;;;;43.70;24.33;;;0.20;99.90;;;;;;5073568;28;20087;-84
2023/12/07 05:04:43;;;;;;;38.75;21.95;;;1.00;99.90;;;;;;5089958;28;20136;-85
2023/12/07 05:07:08;;;;;;;37.60;22.38;;;0.20;99.90;;;;;;5072942;28;20041;-85
2023/12/07 05:09:34;;;;;;;42.17;23.27;;;0.90;99.90;;;;;;5110526;28;20073;-85
2023/12/07 05:12:00;;;;;;;44.90;24.00;;;1.50;99.90;;;;;;5093168;28;20043;-85
2023/12/07 05:14:26;;;;;;;43.63;24.13;;;1.30;99.90;;;;;;5093270;28;20071;-85
2023/12/07 05:16:55;;;;;;;46.83;23.70;;;0.70;99.90;;;;;;5076128;28;20282;-85
2023/12/07 05:19:25;;;;;;;47.50;26.27;;;1.70;99.90;;;;;;5076834;28;20055;-85
2023/12/07 05:21:53;;;;;;;45.47;26.42;;;0.20;99.90;;;;;;5092873;28;20044;-85
2023/12/07 05:24:19;;;;;;;47.75;24.88;;;1.40;99.90;;;;;;5110582;28;20043;-85
2023/12/07 05:26:46;;;;;;;44.47;24.60;;;1.50;99.90;;;;;;5076622;28;20070;-85
2023/12/07 05:29:12;;;;;;;44.63;23.10;;;1.70;99.90;;;;;;5092746;28;20096;-85
2023/12/07 05:31:38;;;;;;;46.20;26.58;;;0.80;99.90;;;;;;5093410;28;20055;-85
2023/12/07 05:34:05;;;;;;;49.17;25.75;;;1.60;99.90;;;;;;5075685;28;20087;-85
2023/12/07 05:36:31;;;;;;;42.85;23.40;;;0.10;99.90;;;;;;5076625;28;20393;-84
2023/12/07 05:38:57;;;;;;;52.47;26.47;;;0.70;99.90;;;;;;5093357;28;20447;-84
2023/12/07 05:41:23;;;;;;;50.10;25.33;;;0.40;99.90;;;;;;5092814;28;20286;-84
2023/12/07 05:43:48;;;;;;;41.77;25.57;;;0.00;99.90;;;;;;5092905;28;20042;-85
2023/12/07 05:46:15;;;;;;;39.60;23.43;;;0.40;99.90;;;;;;5109448;28;20059;-84
2023/12/07 05:48:41;;;;;;;49.20;24.88;;;0.00;99.90;;;;;;5109255;28;20048;-85
2023/12/07 05:51:13;;;;;;;45.10;26.10;;;0.60;99.90;;;;;;5109419;28;20135;-85
2023/12/07 05:53:38;;;;;;;45.22;25.85;;;0.00;99.90;;;;;;5076251;28;20390;-85
2023/12/07 05:56:04;;;;;;;46.07;25.23;;;0.50;99.90;;;;;;5126311;27;20055;-85
2023/12/07 05:58:30;;;;;;;57.13;27.33;;;-0.10;99.90;;;;;;5092439;28;20081;-85
2023/12/07 06:00:56;;;;;;;47.97;26.90;;;1.20;99.90;;;;;;5091914;28;20048;-85
2023/12/07 06:03:22;;;;;;;49.45;26.92;;;0.80;99.90;;;;;;5092497;28;20485;-85
2023/12/07 06:05:49;;;;;;;44.47;25.27;;;-0.10;99.90;;;;;;5109302;28;20051;-85
2023/12/07 06:08:14;;;;;;;51.80;25.83;;;-0.20;99.90;;;;;;5075557;28;20044;-85
2023/12/07 06:10:40;;;;;;;44.37;25.10;;;0.40;99.90;;;;;;5075697;28;20054;-84
2023/12/07 06:13:06;;;;;;;52.33;26.67;;;-0.20;99.90;;;;;;5091805;28;20051;-85
2023/12/07 06:15:31;;;;;;;51.30;25.90;;;1.10;99.90;;;;;;5103689;28;20136;-84
2023/12/07 06:17:58;;;;;;;44.93;25.43;;;-0.20;99.90;;;;;;5088513;28;20063;-85
2023/12/07 06:20:24;;;;;;;;;;;0.40;99.90;;;;;;5107570;28;20101;-84
2023/12/07 06:22:50;;;;;;;42.58;26.45;;;0.90;99.90;;;;;;5058795;28;20002;-84
2023/12/07 06:25:16;;;;;;;50.13;27.23;;;-0.30;99.90;;;;;;5074854;28;20423;-85
2023/12/07 06:27:44;;;;;;;55.13;30.03;;;1.20;99.90;;;;;;5092044;28;20052;-85
2023/12/07 06:30:10;;;;;;;51.17;29.23;;;1.20;99.90;;;;;;5075259;28;20101;-85
2023/12/07 06:32:36;;;;;;;51.40;28.20;;;-0.30;99.90;;;;;;5091785;28;20079;-85
2023/12/07 06:35:04;;;;;;;54.35;28.85;;;0.20;99.90;;;;;;5091435;28;20126;-85
2023/12/07 06:37:30;;;;;;;59.83;30.27;;;-0.30;99.90;;;;;;5091975;28;20040;-85
2023/12/07 06:39:55;;;;;;;53.20;28.33;;;0.70;99.90;;;;;;5041866;28;20497;-84
2023/12/07 06:42:21;;;;;;;49.60;27.73;;;1.20;99.90;;;;;;5074699;28;20066;-85
2023/12/07 06:44:51;;;;;;;50.33;28.50;;;-0.30;99.90;;;;;;5091330;28;20059;-85
2023/12/07 06:47:18;;;;;;;56.80;29.88;;;-0.30;99.90;;;;;;5091072;28;20044;-85
2023/12/07 06:49:44;;;;;;;60.00;29.98;;;-0.20;99.90;;;;;;5075179;28;20044;-85
2023/12/07 06:52:10;;;;;;;52.20;30.02;;;0.60;99.90;;;;;;5074726;28;20063;-85
2023/12/07 06:54:36;;;;;;;54.40;29.67;;;0.90;99.90;;;;;;5091372;28;20486;-85
2023/12/07 06:57:02;;;;;;;57.37;30.27;;;0.90;99.90;;;;;;5074068;28;20055;-85
2023/12/07 06:59:28;;;;;;;54.40;29.20;;;-0.30;99.90;;;;;;5053383;28;20048;-85
2023/12/07 07:01:54;;;;;;;46.63;27.30;;;1.30;99.90;;;;;;5038330;28;20505;-85
2023/12/07 07:04:20;;;;;;;44.17;25.93;;;1.10;99.90;;;;;;5087075;28;20053;-85
2023/12/07 07:06:45;;;;;;;53.90;28.43;;;1.10;99.90;;;;;;5071262;28;20048;-85
2023/12/07 07:09:12;;;;;;;52.77;27.60;;;-0.30;99.90;;;;;;5074025;28;20051;-85
2023/12/07 07:11:38;;;;;;;;;;;1.20;99.90;;;;;;5092315;28;20052;-85
2023/12/07 07:14:04;;;;;;;51.72;29.42;;;-0.40;99.90;;;;;;5091146;28;19920;-85
2023/12/07 07:16:30;;;;;;;50.67;31.17;;;1.10;99.90;;;;;;5091668;28;20112;-85
2023/12/07 07:18:56;;;;;;;55.88;30.90;;;0.30;99.90;;;;;;5074833;28;20052;-84
2023/12/07 07:21:22;;;;;;;52.83;28.13;;;0.70;99.90;;;;;;5091032;28;20131;-85
2023/12/07 07:23:48;;;;;;;58.07;31.63;;;-0.40;99.90;;;;;;5091427;28;20121;-85
2023/12/07 07:26:16;;;;;;;63.97;35.30;;;0.60;99.90;;;;;;5075833;28;20039;-85
2023/12/07 07:28:45;;;;;;;60.78;34.72;;;1.00;99.90;;;;;;5095559;28;20044;-85
2023/12/07 07:31:11;;;;;;;58.15;34.20;;;-0.40;99.90;;;;;;5078024;28;20055;-85
2023/12/07 07:33:37;;;;;;;56.10;33.17;;;-0.40;99.90;;;;;;5045524;28;20047;-84
2023/12/07 07:36:03;;;;;;;55.47;33.37;;;-0.40;99.90;;;;;;5080323;28;20056;-87
2023/12/07 07:38:29;;;;;;;71.10;39.03;;;-0.40;99.90;;;;;;5078215;28;20083;-84
2023/12/07 07:40:55;;;;;;;66.60;37.93;;;1.10;99.90;;;;;;5078292;28;20082;-85
2023/12/07 07:43:21;;;;;;;60.50;35.73;;;-0.40;99.90;;;;;;5060922;28;20048;-85
2023/12/07 07:45:46;;;;;;;68.67;38.23;;;0.50;99.90;;;;;;5095043;28;20048;-85
2023/12/07 07:48:12;;;;;;;64.70;37.43;;;0.60;99.90;;;;;;5094331;28;20044;-86
2023/12/07 07:50:38;;;;;;;67.53;37.07;;;0.80;99.90;;;;;;5078412;28;20094;-87
2023/12/07 07:53:03;;;;;;;67.13;36.83;;;1.00;99.90;;;;;;5095095;28;20568;-87
2023/12/07 07:55:30;;;;;;;66.97;36.73;;;1.20;99.90;;;;;;5077294;28;20050;-88
2023/12/07 07:57:56;;;;;;;;;;;0.00;99.90;;;;;;5078529;28;20366;-87
2023/12/07 08:00:24;;;;;;;60.95;34.30;;;1.20;99.90;;;;;;5077494;28;19969;-86
2023/12/07 08:02:50;;;;;;;69.80;36.75;;;1.20;99.90;;;;;;5078069;28;20052;-87
2023/12/07 08:05:15;;;;;;;71.27;38.40;;;1.10;99.90;;;;;;5110874;28;20063;-85
2023/12/07 08:07:41;;;;;;;73.57;41.23;;;-0.10;99.90;;;;;;5095834;28;20410;-85
2023/12/07 08:10:08;;;;;;;74.70;39.90;;;1.20;99.90;;;;;;5093922;28;20048;-85
2023/12/07 08:12:35;;;;;;;71.53;40.08;;;-0.10;99.90;;;;;;5094438;28;20109;-85
2023/12/07 08:15:01;;;;;;;68.68;41.38;;;0.90;99.90;;;;;;5094736;28;20144;-85
2023/12/07 08:17:27;;;;;;;75.22;38.90;;;-0.10;99.90;;;;;;5094884;28;20055;-85
2023/12/07 08:19:53;;;;;;;73.00;39.17;;;1.20;99.90;;;;;;5077106;28;20143;-85
2023/12/07 08:22:20;;;;;;;69.77;40.57;;;-0.10;99.90;;;;;;5114543;27;20123;-84
2023/12/07 08:24:45;;;;;;;68.88;40.15;;;1.20;99.90;;;;;;5067065;28;20629;-86
2023/12/07 08:27:11;;;;;;;73.63;39.97;;;0.00;99.90;;;;;;5100246;27;20040;-87
2023/12/07 08:29:37;;;;;;;68.07;38.73;;;1.50;99.90;;;;;;5116703;27;20068;-85
2023/12/07 08:32:03;;;;;;;75.67;40.63;;;0.10;99.90;;;;;;5083197;28;20559;-86
2023/12/07 08:34:30;;;;;;;67.55;40.60;;;0.10;99.90;;;;;;5053121;28;20044;-87
2023/12/07 08:36:55;;;;;;;70.57;38.78;;;0.10;99.90;;;;;;5079116;28;20051;-85
2023/12/07 08:39:21;;;;;;;74.20;39.20;;;0.10;99.90;;;;;;5051391;28;20041;-87
2023/12/07 08:41:47;;;;;;;69.17;38.67;;;0.10;99.90;;;;;;5052500;28;20044;-85
2023/12/07 08:44:12;;;;;;;63.77;36.13;;;1.00;99.90;;;;;;5073217;28;20044;-87
2023/12/07 08:46:38;;;;;;;71.77;40.70;;;0.90;99.90;;;;;;5118950;27;20044;-85
2023/12/07 08:49:04;;;;;;;77.40;41.57;;;0.90;99.90;;;;;;5069751;28;20106;-84
2023/12/07 08:51:30;;;;;;;73.33;38.43;;;0.60;99.90;;;;;;5085679;28;20048;-85
2023/12/07 08:53:55;;;;;;;72.53;38.77;;;1.60;99.90;;;;;;5074312;28;20107;-86
2023/12/07 08:56:21;;;;;;;80.17;40.17;;;0.60;99.90;;;;;;5083836;28;20057;-85
2023/12/07 08:58:47;;;;;;;63.23;38.23;;;1.90;99.90;;;;;;5066521;28;20378;-86
2023/12/07 09:01:12;;;;;;;70.43;36.93;;;1.40;99.90;;;;;;5092528;28;20052;-86
2023/12/07 09:03:38;;;;;;;62.20;35.17;;;1.50;99.90;;;;;;5103926;28;20052;-85
2023/12/07 09:06:05;;;;;;;61.80;35.73;;;0.40;99.90;;;;;;5051468;28;20056;-85
2023/12/07 09:08:31;;;;;;;70.70;37.42;;;0.40;99.90;;;;;;5054652;28;20048;-86
2023/12/07 09:10:57;;;;;;;61.70;37.70;;;1.70;99.90;;;;;;5073974;28;20052;-85
2023/12/07 09:13:23;;;;;;;68.10;36.70;;;0.70;99.90;;;;;;5077308;28;20124;-86
2023/12/07 09:15:53;;;;;;;63.87;34.67;;;0.50;99.90;;;;;;5060900;28;20058;-86
2023/12/07 09:18:19;;;;;;;62.33;36.47;;;0.40;99.90;;;;;;5094603;28;20127;-86
2023/12/07 09:20:47;;;;;;;58.27;36.27;;;0.90;99.90;;;;;;5083059;28;20414;-85
2023/12/07 09:23:15;;;;;;;59.03;35.45;;;1.90;99.90;;;;;;5091114;28;20055;-86
2023/12/07 09:25:41;;;;;;;57.33;35.17;;;2.10;99.90;;;;;;5092015;28;20050;-87
2023/12/07 09:28:07;;;;;;;63.35;35.35;;;-0.60;99.90;;;;;;5074665;28;20098;-85
2023/12/07 09:30:33;;;;;;;64.23;35.47;;;0.40;99.90;;;;;;5092590;28;20071;-85
2023/12/07 09:33:00;;;;;;;64.35;34.92;;;1.30;99.90;;;;;;5092640;28;20044;-85
2023/12/07 09:35:26;;;;;;;66.30;34.70;;;2.10;99.90;;;;;;5058811;28;20110;-85
2023/12/07 09:37:52;;;;;;;62.60;35.47;;;1.50;99.90;;;;;;5076874;28;20438;-85
2023/12/07 09:40:20;;;;;;;61.17;35.17;;;1.90;99.90;;;;;;5076557;28;20094;-85
2023/12/07 09:42:49;;;;;;;63.60;37.30;;;1.00;99.90;;;;;;5077837;28;20043;-85
2023/12/07 09:45:18;;;;;;;63.50;36.42;;;0.90;99.90;;;;;;5077364;28;20032;-85
2023/12/07 09:47:51;;;;;;;58.83;34.97;;;0.90;99.90;;;;;;5075822;28;20039;-84
2023/12/07 09:50:19;;;;;;;62.22;35.70;;;1.00;99.90;;;;;;5092394;28;20039;-84
2023/12/07 09:52:44;;;;;;;62.60;34.42;;;1.10;99.90;;;;;;5075937;28;20381;-86
2023/12/07 09:55:10;;;;;;;68.03;36.73;;;2.40;99.90;;;;;;5059426;28;20036;-85
2023/12/07 09:57:39;;;;;;;56.00;33.27;;;2.40;99.90;;;;;;5059176;28;20290;-85
2023/12/07 10:00:09;;;;;;;60.03;34.88;;;2.70;99.90;;;;;;5059602;28;20043;-85
2023/12/07 10:02:38;;;;;;;52.47;30.35;;;1.40;99.90;;;;;;5076190;28;20040;-85
2023/12/07 10:05:18;;;;;;;59.95;35.15;;;2.20;99.90;;;;;;5075603;28;20051;-85
2023/12/07 10:07:47;;;;;;;53.90;32.70;;;2.60;99.90;;;;;;5092584;28;20048;-89
2023/12/07 10:10:13;;;;;;;53.25;31.65;;;3.20;99.90;;;;;;5076587;28;20039;-87
2023/12/07 10:12:52;;;;;;;58.00;32.10;;;3.20;99.90;;;;;;5077837;28;20040;-88
2023/12/07 10:15:22;;;;;;;55.55;30.52;;;2.20;99.90;;;;;;5094902;28;20415;-88
2023/12/07 10:17:50;;;;;;;57.78;32.25;;;2.40;99.90;;;;;;5076677;28;20358;-88
2023/12/07 10:20:16;;;;;;;43.47;26.50;;;3.70;99.90;;;;;;5077675;28;20047;-88
2023/12/07 10:22:42;;;;;;;;;;;2.80;99.90;;;;;;5078633;28;20466;-88
2023/12/07 10:25:10;;;;;;;42.50;25.02;;;2.90;99.90;;;;;;5106928;28;19923;-88
2023/12/07 10:27:40;;;;;;;45.03;27.05;;;3.00;99.90;;;;;;5057103;28;20055;-88
2023/12/07 10:30:08;;;;;;;42.45;26.27;;;3.30;99.90;;;;;;5073147;28;20520;-88
2023/12/07 10:32:39;;;;;;;40.08;24.90;;;3.40;99.90;;;;;;5092053;28;20036;-87
2023/12/07 10:35:07;;;;;;;79.18;26.10;;;3.30;99.90;;;;;;5116106;27;20496;-88
2023/12/07 10:37:33;;;;;;;74.35;26.48;;;2.90;99.90;;;;;;5076800;28;20051;-88
2023/12/07 10:40:01;;;;;;;81.97;24.83;;;2.60;99.90;;;;;;5109364;28;20355;-86
2023/12/07 10:42:36;;;;;;;64.68;25.10;;;3.60;99.90;;;;;;5097276;28;20089;-87
2023/12/07 10:45:13;;;;;;;69.68;24.50;;;2.00;99.90;;;;;;5055511;28;20044;-87
2023/12/07 10:47:40;;;;;;;65.93;25.13;;;1.70;99.90;;;;;;5071406;28;20073;-86
2023/12/07 10:50:10;;;;;;;77.82;26.00;;;1.70;99.90;;;;;;5072001;28;20048;-85
2023/12/07 10:52:54;;;;;;;59.55;22.73;;;1.50;99.90;;;;;;5071601;28;20059;-85
2023/12/07 10:55:29;;;;;;;70.28;24.27;;;1.40;99.90;;;;;;5075193;28;20160;-86
2023/12/07 10:57:56;;;;;;;90.68;27.77;;;1.30;99.90;;;;;;5074462;28;20056;-87
2023/12/07 11:00:27;;;;;;;76.07;24.90;;;1.20;99.90;;;;;;5078805;28;20084;-87
2023/12/07 11:02:53;;;;;;;87.40;24.65;;;2.00;99.90;;;;;;5074525;28;20062;-85
2023/12/07 11:05:20;;;;;;;91.13;27.65;;;1.00;99.90;;;;;;5074415;28;20059;-86
2023/12/07 11:08:06;;;;;;;64.55;26.65;;;1.00;99.90;;;;;;5090998;28;20067;-85
2023/12/07 11:10:56;;;;;;;52.17;24.63;;;2.10;99.90;;;;;;5075076;28;20044;-85
2023/12/07 11:13:30;;;;;;;52.05;25.25;;;0.90;99.90;;;;;;5091773;28;20040;-85
2023/12/07 11:15:57;;;;;;;61.97;24.58;;;1.40;99.90;;;;;;5090977;28;20486;-85
2023/12/07 11:18:26;;;;;;;72.35;25.58;;;0.90;99.90;;;;;;5074926;28;20454;-85
2023/12/07 11:20:53;;;;;;;76.35;29.67;;;0.80;99.90;;;;;;5091092;28;20153;-85
2023/12/07 11:23:20;;;;;;;101.20;31.60;;;1.60;99.90;;;;;;5093367;28;20069;-86
2023/12/07 11:25:46;;;;;;;;;;;0.80;99.90;;;;;;5065965;28;20041;-81
2023/12/07 11:28:13;;;;;;;53.92;23.67;;;0.90;99.90;;;;;;5081279;28;19928;-86
2023/12/07 11:30:42;;;;;;;60.38;28.05;;;0.80;99.90;;;;;;5078475;28;20057;-86
2023/12/07 11:33:09;;;;;;;59.53;28.50;;;0.70;99.90;;;;;;5081076;28;20051;-85
2023/12/07 11:36:06;;;;;;;67.78;31.27;;;0.80;99.90;;;;;;5084561;28;20044;-84
2023/12/07 11:38:31;;;;;;;79.30;30.75;;;0.80;99.90;;;;;;5105715;28;20051;-88
2023/12/07 11:40:57;;;;;;;105.23;34.47;;;1.50;99.90;;;;;;5071796;28;20043;-84
2023/12/07 11:43:35;;;;;;;81.60;31.67;;;1.90;99.90;;;;;;5118564;28;20136;-85
2023/12/07 11:46:01;;;;;;;102.22;36.47;;;0.80;99.90;;;;;;5070542;28;20048;-87
2023/12/07 11:48:27;;;;;;;92.97;35.90;;;1.20;99.90;;;;;;5086191;28;20486;-86
2023/12/07 11:51:07;;;;;;;107.73;36.80;;;0.90;99.90;;;;;;5094988;28;20055;-87
2023/12/07 11:53:37;;;;;;;67.47;31.42;;;0.80;99.90;;;;;;5074672;28;20071;-85
2023/12/07 11:56:05;;;;;;;73.40;33.35;;;0.80;99.90;;;;;;5087340;28;20247;-85
2023/12/07 11:58:33;;;;;;;67.40;32.55;;;0.80;99.90;;;;;;5080881;28;20044;-85
2023/12/07 12:00:59;;;;;;;110.55;40.40;;;2.10;99.90;;;;;;5062886;28;20048;-84
2023/12/07 12:03:31;;;;;;;86.60;34.05;;;1.90;99.90;;;;;;5076092;28;20052;-85
2023/12/07 12:05:56;;;;;;;91.20;35.95;;;1.50;99.90;;;;;;5081231;28;20075;-86
2023/12/07 12:08:23;;;;;;;89.13;36.57;;;2.00;99.90;;;;;;5099099;28;20486;-85
2023/12/07 12:10:52;;;;;;;135.32;40.90;;;0.80;99.90;;;;;;5080885;28;20047;-85
2023/12/07 12:13:18;;;;;;;93.13;34.65;;;0.80;99.90;;;;;;5087046;28;20109;-85
2023/12/07 12:15:46;;;;;;;75.82;30.73;;;1.60;99.90;;;;;;5080368;28;20080;-85
2023/12/07 12:18:13;;;;;;;122.20;43.60;;;0.80;99.90;;;;;;5066124;28;20044;-84
2023/12/07 12:20:39;;;;;;;76.93;34.38;;;0.80;99.90;;;;;;5057120;28;20048;-83
2023/12/07 12:23:05;;;;;;;89.38;34.00;;;0.80;99.90;;;;;;5073566;28;20040;-84
2023/12/07 12:25:32;;;;;;;83.33;35.57;;;0.80;99.90;;;;;;5058400;28;20047;-84
2023/12/07 12:28:02;;;;;;;;;;;1.80;99.90;;;;;;5057500;28;20295;-84
2023/12/07 12:30:29;;;;;;;79.15;34.42;;;1.30;99.90;;;;;;5102945;28;20369;-83
2023/12/07 12:32:55;;;;;;;78.63;34.67;;;1.80;99.90;;;;;;5094220;28;20101;-84
2023/12/07 12:35:22;;;;;;;67.80;32.22;;;0.80;99.90;;;;;;5079103;28;20075;-84
2023/12/07 12:37:49;;;;;;;72.35;33.83;;;0.70;99.90;;;;;;5061500;28;20048;-84